createdAt,value
2022-11-05T00:00:24.748Z,1.63
2022-11-05T00:02:54.710Z,1.00
2022-11-05T00:05:21.561Z,0.80
2022-11-05T00:07:52.764Z,1.33
2022-11-05T00:10:26.574Z,0.68
2022-11-05T00:12:55.045Z,1.63
2022-11-05T00:15:22.320Z,0.80
2022-11-05T00:17:48.971Z,2.50
2022-11-05T00:20:16.333Z,1.43
2022-11-05T00:22:43.065Z,1.30
2022-11-05T00:25:09.929Z,1.60
2022-11-05T00:27:36.852Z,1.58
2022-11-05T00:30:05.704Z,3.22
2022-11-05T00:32:34.386Z,1.27
2022-11-05T00:35:01.173Z,1.20
2022-11-05T00:37:29.314Z,1.42
2022-11-05T00:39:56.092Z,1.15
2022-11-05T00:42:22.948Z,0.82
2022-11-05T00:44:49.768Z,1.40
2022-11-05T00:47:16.577Z,1.00
2022-11-05T00:49:44.426Z,1.58
2022-11-05T00:52:11.659Z,1.40
2022-11-05T00:54:38.608Z,1.48
2022-11-05T00:57:05.373Z,1.00
2022-11-05T00:59:32.389Z,1.67
2022-11-05T01:02:06.269Z,2.15
2022-11-05T01:04:34.390Z,1.42
2022-11-05T01:07:01.131Z,1.50
2022-11-05T01:09:28.337Z,1.60
2022-11-05T01:11:55.051Z,1.50
2022-11-05T01:14:21.889Z,0.95
2022-11-05T01:16:49.409Z,1.15
2022-11-05T01:19:16.165Z,2.20
2022-11-05T01:21:42.950Z,1.00
2022-11-05T01:24:11.402Z,1.48
2022-11-05T01:26:38.228Z,2.35
2022-11-05T01:29:05.157Z,2.33
2022-11-05T01:31:31.970Z,1.17
2022-11-05T01:34:00.968Z,1.60
2022-11-05T01:36:27.960Z,1.73
2022-11-05T01:38:54.899Z,1.52
2022-11-05T01:41:21.611Z,2.47
2022-11-05T01:43:52.542Z,3.30
2022-11-05T01:46:31.963Z,1.90
2022-11-05T01:49:10.662Z,1.92
2022-11-05T01:51:39.083Z,1.55
2022-11-05T01:54:10.275Z,1.42
2022-11-05T01:56:50.200Z,2.25
2022-11-05T01:59:25.014Z,2.33
2022-11-05T02:01:55.031Z,2.55
2022-11-05T02:04:33.693Z,1.30
2022-11-05T02:07:00.695Z,2.55
2022-11-05T02:09:30.642Z,1.35
2022-11-05T02:11:58.622Z,1.87
2022-11-05T02:14:25.500Z,1.70
2022-11-05T02:17:19.430Z,1.92
2022-11-05T02:20:18.829Z,1.20
2022-11-05T02:23:13.643Z,1.48
2022-11-05T02:26:12.175Z,2.67
2022-11-05T02:29:03.772Z,2.53
2022-11-05T02:31:49.759Z,3.60
2022-11-05T02:34:27.706Z,1.38
2022-11-05T02:37:00.513Z,2.30
2022-11-05T02:39:47.197Z,1.87
2022-11-05T02:42:41.236Z,2.28
2022-11-05T02:45:51.029Z,2.05
2022-11-05T02:48:39.915Z,1.65
2022-11-05T02:51:44.078Z,2.35
2022-11-05T02:54:23.288Z,1.50
2022-11-05T02:56:54.337Z,1.50
2022-11-05T02:59:21.138Z,1.65
2022-11-05T03:01:50.543Z,2.20
2022-11-05T03:04:21.717Z,1.65
2022-11-05T03:06:51.618Z,1.73
2022-11-05T03:09:26.128Z,1.50
2022-11-05T03:12:05.230Z,1.83
2022-11-05T03:14:50.818Z,1.67
2022-11-05T03:17:30.839Z,2.08
2022-11-05T03:20:20.385Z,2.77
2022-11-05T03:22:56.309Z,3.45
2022-11-05T03:25:25.059Z,2.10
2022-11-05T03:27:58.936Z,2.40
2022-11-05T03:30:27.109Z,5.28
2022-11-05T03:33:00.340Z,2.30
2022-11-05T03:35:38.272Z,4.25
2022-11-05T03:38:14.431Z,2.83
2022-11-05T03:40:43.178Z,2.75
2022-11-05T03:43:10.359Z,3.60
2022-11-05T03:45:44.302Z,2.30
2022-11-05T03:48:15.410Z,2.55
2022-11-05T03:51:08.512Z,3.22
2022-11-05T03:53:44.429Z,3.83
2022-11-05T03:56:44.900Z,3.45
2022-11-05T03:59:12.891Z,2.53
2022-11-05T04:01:39.831Z,2.13
2022-11-05T04:04:07.984Z,2.53
2022-11-05T04:06:35.775Z,2.05
2022-11-05T04:09:02.605Z,2.60
2022-11-05T04:11:29.888Z,3.67
2022-11-05T04:13:56.682Z,2.95
2022-11-05T04:16:23.721Z,3.90
2022-11-05T04:18:50.473Z,2.47
2022-11-05T04:21:17.243Z,2.45
2022-11-05T04:23:43.992Z,2.87
2022-11-05T04:26:10.945Z,2.40
2022-11-05T04:28:37.664Z,1.70
2022-11-05T04:31:04.541Z,2.28
2022-11-05T04:33:31.528Z,2.25
2022-11-05T04:35:58.344Z,2.70
2022-11-05T04:38:25.902Z,2.65
2022-11-05T04:40:52.673Z,2.50
2022-11-05T04:43:19.840Z,2.58
2022-11-05T04:45:46.905Z,3.10
2022-11-05T04:48:14.437Z,2.37
2022-11-05T04:50:41.229Z,3.63
2022-11-05T04:53:08.177Z,2.97
2022-11-05T04:55:35.197Z,2.10
2022-11-05T04:58:02.073Z,3.08
2022-11-05T05:00:28.900Z,2.83
2022-11-05T05:02:55.776Z,2.70
2022-11-05T05:05:22.622Z,3.85
2022-11-05T05:07:50.406Z,3.00
2022-11-05T05:10:17.740Z,4.43
2022-11-05T05:12:44.754Z,11.67
2022-11-05T05:15:12.596Z,2.70
2022-11-05T05:17:39.842Z,4.75
2022-11-05T05:20:07.137Z,3.67
2022-11-05T05:22:34.095Z,3.67
2022-11-05T05:25:01.174Z,3.33
2022-11-05T05:27:28.580Z,3.45
2022-11-05T05:29:59.675Z,3.58
2022-11-05T05:32:26.975Z,3.53
2022-11-05T05:34:54.195Z,4.55
2022-11-05T05:37:21.035Z,5.07
2022-11-05T05:39:48.274Z,3.15
2022-11-05T05:42:15.816Z,3.90
2022-11-05T05:44:43.100Z,4.85
2022-11-05T05:47:10.555Z,3.53
2022-11-05T05:49:37.476Z,8.73
2022-11-05T05:52:05.561Z,4.00
2022-11-05T05:54:37.056Z,4.47
2022-11-05T05:57:08.515Z,2.92
2022-11-05T05:59:35.336Z,5.00
2022-11-05T06:02:02.572Z,3.70
2022-11-05T06:04:29.455Z,3.15
2022-11-05T06:06:56.335Z,3.88
2022-11-05T06:09:23.258Z,3.75
2022-11-05T06:11:53.471Z,6.82
2022-11-05T06:14:20.353Z,6.50
2022-11-05T06:16:47.104Z,6.72
2022-11-05T06:19:14.654Z,4.70
2022-11-05T06:21:41.575Z,3.97
2022-11-05T06:24:09.136Z,4.13
2022-11-05T06:26:36.145Z,4.23
2022-11-05T06:29:04.774Z,4.55
2022-11-05T06:31:31.507Z,4.15
2022-11-05T06:33:58.292Z,4.45
2022-11-05T06:36:25.499Z,4.22
2022-11-05T06:38:52.224Z,4.57
2022-11-05T06:41:19.273Z,5.50
2022-11-05T06:43:46.063Z,4.05
2022-11-05T06:46:13.332Z,4.13
2022-11-05T06:48:41.613Z,4.88
2022-11-05T06:51:09.837Z,7.17
2022-11-05T06:53:37.533Z,3.55
2022-11-05T06:56:07.613Z,5.72
2022-11-05T06:58:34.877Z,3.42
2022-11-05T07:01:07.334Z,4.47
2022-11-05T07:03:35.074Z,5.60
2022-11-05T07:08:47.934Z,3.97
2022-11-05T07:11:16.137Z,5.45
2022-11-05T07:13:43.174Z,5.57
2022-11-05T07:16:10.134Z,8.43
2022-11-05T07:18:37.055Z,4.65
2022-11-05T07:21:04.260Z,6.57
2022-11-05T07:23:31.134Z,4.63
2022-11-05T07:25:59.635Z,4.72
2022-11-05T07:28:26.625Z,4.70
2022-11-05T07:30:53.617Z,5.78
2022-11-05T07:33:24.874Z,6.00
2022-11-05T07:35:56.876Z,6.18
2022-11-05T07:38:24.534Z,5.40
2022-11-05T07:40:51.553Z,4.00
2022-11-05T07:43:18.556Z,4.43
2022-11-05T07:45:45.814Z,4.88
2022-11-05T07:48:12.694Z,4.25
2022-11-05T07:50:39.598Z,5.13
2022-11-05T07:53:13.045Z,3.77
2022-11-05T07:55:44.594Z,4.43
2022-11-05T07:58:12.354Z,5.75
2022-11-05T08:00:39.898Z,5.88
2022-11-05T08:03:15.844Z,5.63
2022-11-05T08:05:46.547Z,3.57
2022-11-05T08:08:19.116Z,3.97
2022-11-05T08:10:47.033Z,5.18
2022-11-05T08:13:14.831Z,4.78
2022-11-05T08:15:42.503Z,4.15
2022-11-05T08:18:15.590Z,6.63
2022-11-05T08:20:45.054Z,3.65
2022-11-05T08:23:12.384Z,3.97
2022-11-05T08:25:40.336Z,4.47
2022-11-05T08:28:10.574Z,4.50
2022-11-05T08:30:37.794Z,4.40
2022-11-05T08:33:08.139Z,4.20
2022-11-05T08:35:37.576Z,3.75
2022-11-05T08:38:06.457Z,4.43
2022-11-05T08:40:36.202Z,4.70
2022-11-05T08:43:05.133Z,4.33
2022-11-05T08:45:32.043Z,4.78
2022-11-05T08:48:04.256Z,4.88
2022-11-05T08:50:31.915Z,3.63
2022-11-05T08:52:59.635Z,4.03
2022-11-05T08:55:27.299Z,5.07
2022-11-05T08:58:02.975Z,5.72
2022-11-05T09:00:32.434Z,4.88
2022-11-05T09:03:00.814Z,5.00
2022-11-05T09:05:28.676Z,4.68
2022-11-05T09:08:00.764Z,6.03
2022-11-05T09:10:28.700Z,5.15
2022-11-05T09:12:56.271Z,5.00
2022-11-05T09:15:24.395Z,4.47
2022-11-05T09:17:51.620Z,4.57
2022-11-05T09:20:18.916Z,4.23
2022-11-05T09:22:45.893Z,5.53
2022-11-05T09:25:12.909Z,4.15
2022-11-05T09:27:39.854Z,6.22
2022-11-05T09:30:07.535Z,4.68
2022-11-05T09:32:34.556Z,4.67
2022-11-05T09:35:01.351Z,4.88
2022-11-05T09:37:29.285Z,5.72
2022-11-05T09:39:57.076Z,5.50
2022-11-05T09:42:32.857Z,8.48
2022-11-05T09:45:05.213Z,4.97
2022-11-05T09:47:40.134Z,4.57
2022-11-05T09:50:14.073Z,4.35
2022-11-05T09:52:40.925Z,6.22
2022-11-05T09:55:20.935Z,6.30
2022-11-05T09:57:54.596Z,5.33
2022-11-05T10:00:22.538Z,5.80
2022-11-05T10:03:00.117Z,5.55
2022-11-05T10:05:28.676Z,7.55
2022-11-05T10:08:04.915Z,5.72
2022-11-05T10:10:41.286Z,4.63
2022-11-05T10:13:12.038Z,5.40
2022-11-05T10:15:50.194Z,5.40
2022-11-05T10:18:26.517Z,7.15
2022-11-05T10:20:53.912Z,6.30
2022-11-05T10:23:22.533Z,5.30
2022-11-05T10:26:01.154Z,6.20
2022-11-05T10:28:30.533Z,7.07
2022-11-05T10:31:06.015Z,6.15
2022-11-05T10:33:53.130Z,5.65
2022-11-05T10:36:29.016Z,4.83
2022-11-05T10:39:11.834Z,7.70
2022-11-05T10:41:44.914Z,7.53
2022-11-05T10:44:32.476Z,7.05
2022-11-05T10:47:22.214Z,6.10
2022-11-05T10:50:01.258Z,5.45
2022-11-05T10:52:28.054Z,5.47
2022-11-05T10:54:58.775Z,6.30
2022-11-05T10:57:38.994Z,6.57
2022-11-05T11:00:14.714Z,6.45
2022-11-05T11:02:43.414Z,6.60
2022-11-05T11:05:21.714Z,8.07
2022-11-05T11:08:01.915Z,4.95
2022-11-05T11:10:33.076Z,6.32
2022-11-05T11:13:00.235Z,7.28
2022-11-05T11:15:29.985Z,6.97
2022-11-05T11:17:57.098Z,8.33
2022-11-05T11:20:30.035Z,6.82
2022-11-05T11:23:13.614Z,6.07
2022-11-05T11:25:59.857Z,5.53
2022-11-05T11:28:31.293Z,6.85
2022-11-05T11:31:21.037Z,6.03
2022-11-05T11:33:51.809Z,6.45
2022-11-05T11:36:24.634Z,7.35
2022-11-05T11:38:59.975Z,6.63
2022-11-05T11:41:40.574Z,6.38
2022-11-05T11:44:32.435Z,6.33
2022-11-05T11:47:11.996Z,6.50
2022-11-05T11:49:44.553Z,6.63
2022-11-05T11:52:17.573Z,7.45
2022-11-05T11:54:44.946Z,7.30
2022-11-05T11:57:21.015Z,6.90
2022-11-05T12:00:07.738Z,7.00
2022-11-05T12:03:02.026Z,6.85
2022-11-05T12:05:44.269Z,6.38
2022-11-05T12:08:45.837Z,6.50
2022-11-05T12:11:23.553Z,6.07
2022-11-05T12:13:56.300Z,7.68
2022-11-05T12:16:34.994Z,8.30
2022-11-05T12:19:13.127Z,8.18
2022-11-05T12:22:03.177Z,14.70
2022-11-05T12:24:45.180Z,9.27
2022-11-05T12:27:51.536Z,8.45
2022-11-05T12:30:21.213Z,7.57
2022-11-05T12:33:18.249Z,7.53
2022-11-05T12:36:04.216Z,7.40
2022-11-05T12:38:46.940Z,7.33
2022-11-05T12:41:38.983Z,6.68
2022-11-05T12:44:14.954Z,7.13
2022-11-05T12:47:06.734Z,6.22
2022-11-05T12:49:40.815Z,7.60
2022-11-05T12:52:28.694Z,6.77
2022-11-05T12:55:15.706Z,6.30
2022-11-05T12:57:47.265Z,6.72
2022-11-05T13:00:20.816Z,5.18
2022-11-05T13:02:56.595Z,6.13
2022-11-05T13:05:35.734Z,5.03
2022-11-05T13:08:15.797Z,7.40
2022-11-05T13:11:03.298Z,4.30
2022-11-05T13:13:36.616Z,4.10
2022-11-05T13:16:16.015Z,4.38
2022-11-05T13:18:49.126Z,5.60
2022-11-05T13:21:19.374Z,5.82
2022-11-05T13:23:49.613Z,5.22
2022-11-05T13:26:20.031Z,3.88
2022-11-05T13:28:54.314Z,3.92
2022-11-05T13:31:31.616Z,4.87
2022-11-05T13:34:04.737Z,3.72
2022-11-05T13:36:42.867Z,5.50
2022-11-05T13:39:22.835Z,4.68
2022-11-05T13:41:55.814Z,5.90
2022-11-05T13:44:34.558Z,5.57
2022-11-05T13:47:22.934Z,8.55
2022-11-05T13:50:24.995Z,5.80
2022-11-05T13:53:04.150Z,5.65
2022-11-05T13:55:56.193Z,5.57
2022-11-05T13:58:35.934Z,4.20
2022-11-05T14:01:08.922Z,4.45
2022-11-05T14:03:37.014Z,5.60
2022-11-05T14:06:07.395Z,4.38
2022-11-05T14:08:41.294Z,4.47
2022-11-05T14:11:31.475Z,4.37
2022-11-05T14:14:03.117Z,4.13
2022-11-05T14:16:54.654Z,6.18
2022-11-05T14:19:32.766Z,4.65
2022-11-05T14:21:59.994Z,5.18
2022-11-05T14:24:40.434Z,6.00
2022-11-05T14:27:08.076Z,4.20
2022-11-05T14:29:44.144Z,5.72
2022-11-05T14:32:18.226Z,6.47
2022-11-05T14:35:00.875Z,5.00
2022-11-05T14:37:34.117Z,4.57
2022-11-05T14:40:43.795Z,4.25
2022-11-05T14:43:14.609Z,4.68
2022-11-05T14:45:52.794Z,3.72
2022-11-05T14:48:47.675Z,4.30
2022-11-05T14:51:31.782Z,5.13
2022-11-05T14:54:30.494Z,5.55
2022-11-05T14:57:01.791Z,4.20
2022-11-05T14:59:29.154Z,4.88
2022-11-05T15:02:12.867Z,5.20
2022-11-05T15:04:40.652Z,4.83
2022-11-05T15:07:11.266Z,5.32
2022-11-05T15:09:59.354Z,6.03
2022-11-05T15:12:38.534Z,4.15
2022-11-05T15:15:30.655Z,6.47
2022-11-05T15:18:15.537Z,5.03
2022-11-05T15:20:46.714Z,4.45
2022-11-05T15:23:18.595Z,4.40
2022-11-05T15:25:53.636Z,5.45
2022-11-05T15:28:39.489Z,3.58
2022-11-05T15:31:31.735Z,4.90
2022-11-05T15:34:26.095Z,4.90
2022-11-05T15:37:00.454Z,4.05
2022-11-05T15:39:30.721Z,4.00
2022-11-05T15:42:01.990Z,4.68
2022-11-05T15:44:38.235Z,4.43
2022-11-05T15:47:15.994Z,4.43
2022-11-05T15:49:45.777Z,4.75
2022-11-05T15:52:15.154Z,3.53
2022-11-05T15:54:43.675Z,6.05
2022-11-05T15:57:28.813Z,6.90
2022-11-05T15:59:56.379Z,5.32
2022-11-05T16:02:39.507Z,5.75
2022-11-05T16:05:13.373Z,6.22
2022-11-05T16:07:48.217Z,6.10
2022-11-05T16:10:22.235Z,6.17
2022-11-05T16:12:49.854Z,7.38
2022-11-05T16:15:30.114Z,5.55
2022-11-05T16:18:01.025Z,5.55
2022-11-05T16:20:34.139Z,6.60
2022-11-05T16:23:08.295Z,6.77
2022-11-05T16:25:42.776Z,6.85
2022-11-05T16:28:36.491Z,6.57
2022-11-05T16:31:06.755Z,6.68
2022-11-05T16:33:47.797Z,7.32
2022-11-05T16:36:15.518Z,7.40
2022-11-05T16:38:43.915Z,6.15
2022-11-05T16:41:17.711Z,7.35
2022-11-05T16:43:52.316Z,5.53
2022-11-05T16:46:19.956Z,5.63
2022-11-05T16:48:48.194Z,5.97
2022-11-05T16:51:16.493Z,4.15
2022-11-05T16:53:44.816Z,4.35
2022-11-05T16:56:16.634Z,6.03
2022-11-05T16:58:46.733Z,6.72
2022-11-05T17:01:20.507Z,5.70
2022-11-05T17:03:49.437Z,6.60
2022-11-05T17:06:18.406Z,6.70
2022-11-05T17:08:47.334Z,5.38
2022-11-05T17:11:17.274Z,6.85
2022-11-05T17:13:45.274Z,4.77
2022-11-05T17:16:15.637Z,6.38
2022-11-05T17:18:45.380Z,4.25
2022-11-05T17:21:13.015Z,5.68
2022-11-05T17:23:41.195Z,6.20
2022-11-05T17:26:11.813Z,7.47
2022-11-05T17:28:40.458Z,5.85
2022-11-05T17:31:10.314Z,6.85
2022-11-05T17:33:37.974Z,6.88
2022-11-05T17:36:11.737Z,7.80
2022-11-05T17:38:39.595Z,6.60
2022-11-05T17:41:14.808Z,5.55
2022-11-05T17:43:43.935Z,7.35
2022-11-05T17:46:14.654Z,7.25
2022-11-05T17:48:45.103Z,5.57
2022-11-05T17:51:14.950Z,7.73
2022-11-05T17:53:43.679Z,7.18
2022-11-05T17:56:24.511Z,5.93
2022-11-05T17:59:00.337Z,6.60
2022-11-05T18:01:34.277Z,6.35
2022-11-05T18:04:08.345Z,8.17
2022-11-05T18:06:39.856Z,7.25
2022-11-05T18:09:10.894Z,8.07
2022-11-05T18:11:40.547Z,7.68
2022-11-05T18:14:08.798Z,6.90
2022-11-05T18:16:37.454Z,7.90
2022-11-05T18:19:05.937Z,5.40
2022-11-05T18:21:38.454Z,7.38
2022-11-05T18:24:06.995Z,7.05
2022-11-05T18:26:37.097Z,6.47
2022-11-05T18:29:06.549Z,6.27
2022-11-05T18:31:34.235Z,5.80
2022-11-05T18:34:02.166Z,6.88
2022-11-05T18:36:32.342Z,6.03
2022-11-05T18:39:01.834Z,8.45
2022-11-05T18:41:30.094Z,6.17
2022-11-05T18:44:02.589Z,6.00
2022-11-05T18:46:57.011Z,8.50
2022-11-05T18:49:22.355Z,6.22
2022-11-05T18:54:31.528Z,7.83
2022-11-05T18:56:59.060Z,8.48
2022-11-05T18:59:37.644Z,7.20
2022-11-05T19:02:06.548Z,6.22
2022-11-05T19:04:38.745Z,16.90
2022-11-05T19:07:07.981Z,7.70
2022-11-05T19:09:38.570Z,6.30
2022-11-05T19:12:11.257Z,6.22
2022-11-05T19:14:39.915Z,5.68
2022-11-05T19:17:07.287Z,6.82
2022-11-05T19:19:36.905Z,5.90
2022-11-05T19:22:04.565Z,6.85
2022-11-05T19:24:32.234Z,6.38
2022-11-05T19:27:00.942Z,7.65
2022-11-05T19:29:28.328Z,8.48
2022-11-05T19:31:56.045Z,6.83
2022-11-05T19:34:25.250Z,6.75
2022-11-05T19:36:52.855Z,8.15
2022-11-05T19:39:20.839Z,8.30
2022-11-05T19:41:50.128Z,6.35
2022-11-05T19:44:19.747Z,5.97
2022-11-05T19:46:50.761Z,6.22
2022-11-05T19:49:18.385Z,6.43
2022-11-05T19:51:46.769Z,6.63
2022-11-05T19:54:15.701Z,8.45
2022-11-05T19:56:43.246Z,6.73
2022-11-05T19:59:13.091Z,8.02
2022-11-05T20:01:41.387Z,7.55
2022-11-05T20:04:15.672Z,8.13
2022-11-05T20:06:45.258Z,6.55
2022-11-05T20:09:22.143Z,5.47
2022-11-05T20:11:53.948Z,8.70
2022-11-05T20:14:25.823Z,5.97
2022-11-05T20:16:54.105Z,7.70
2022-11-05T20:19:23.801Z,7.13
2022-11-05T20:21:54.035Z,6.83
2022-11-05T20:24:25.202Z,6.88
2022-11-05T20:26:55.555Z,7.85
2022-11-05T20:29:29.066Z,6.32
2022-11-05T20:32:03.187Z,6.07
2022-11-05T20:34:32.403Z,8.23
2022-11-05T20:37:01.560Z,7.45
2022-11-05T20:39:30.409Z,5.97
2022-11-05T20:41:59.074Z,5.70
2022-11-05T20:44:27.855Z,5.50
2022-11-05T20:46:56.161Z,5.33
2022-11-05T20:49:25.890Z,5.88
2022-11-05T20:51:56.412Z,7.40
2022-11-05T20:54:24.677Z,6.25
2022-11-05T20:56:53.064Z,8.00
2022-11-05T20:59:21.126Z,5.83
2022-11-05T21:01:51.214Z,6.38
2022-11-05T21:04:19.523Z,4.50
2022-11-05T21:06:48.181Z,7.40
2022-11-05T21:09:16.494Z,6.43
2022-11-05T21:11:46.362Z,6.97
2022-11-05T21:14:18.351Z,5.55
2022-11-05T21:16:47.392Z,5.28
2022-11-05T21:19:16.799Z,6.30
2022-11-05T21:21:44.378Z,5.65
2022-11-05T21:24:12.360Z,5.23
2022-11-05T21:26:41.931Z,4.80
2022-11-05T21:29:08.861Z,6.55
2022-11-05T21:31:37.630Z,5.45
2022-11-05T21:34:05.234Z,5.68
2022-11-05T21:36:32.783Z,6.00
2022-11-05T21:39:00.114Z,7.10
2022-11-05T21:41:27.721Z,5.32
2022-11-05T21:43:56.187Z,5.72
2022-11-05T21:46:27.470Z,5.47
2022-11-05T21:48:55.298Z,6.60
2022-11-05T21:51:23.337Z,5.28
2022-11-05T21:53:52.308Z,4.88
2022-11-05T21:56:25.014Z,7.38
2022-11-05T21:58:51.972Z,6.50
2022-11-05T22:01:19.294Z,5.77
2022-11-05T22:03:46.306Z,5.72
2022-11-05T22:06:13.462Z,5.78
2022-11-05T22:08:40.685Z,5.90
2022-11-05T22:11:07.477Z,5.38
2022-11-05T22:13:34.417Z,6.20
2022-11-05T22:16:01.245Z,7.82
2022-11-05T22:18:28.162Z,7.85
2022-11-05T22:20:54.960Z,6.07
2022-11-05T22:23:21.818Z,5.38
2022-11-05T22:25:48.708Z,5.27
2022-11-05T22:28:15.756Z,5.70
2022-11-05T22:30:42.676Z,6.38
2022-11-05T22:33:09.965Z,5.75
2022-11-05T22:35:39.508Z,3.85
2022-11-05T22:38:06.589Z,7.33
2022-11-05T22:40:33.366Z,5.85
2022-11-05T22:43:00.213Z,8.50
2022-11-05T22:45:27.030Z,6.10
2022-11-05T22:47:53.948Z,5.72
2022-11-05T22:50:20.741Z,6.13
2022-11-05T22:52:47.526Z,4.93
2022-11-05T22:55:14.466Z,5.43
2022-11-05T22:57:41.340Z,6.85
2022-11-05T23:00:16.412Z,6.30
2022-11-05T23:02:43.740Z,6.33
2022-11-05T23:05:10.750Z,4.88
2022-11-05T23:07:38.774Z,5.05
2022-11-05T23:10:05.962Z,8.00
2022-11-05T23:12:36.507Z,7.95
2022-11-05T23:15:06.169Z,6.93
2022-11-05T23:17:33.582Z,6.57
2022-11-05T23:20:00.612Z,7.40
2022-11-05T23:22:30.441Z,6.50
2022-11-05T23:24:57.832Z,5.43
2022-11-05T23:27:25.073Z,5.67
2022-11-05T23:29:52.091Z,6.55
2022-11-05T23:32:18.839Z,5.18
2022-11-05T23:34:45.944Z,4.72
2022-11-05T23:37:12.912Z,8.68
2022-11-05T23:39:42.685Z,6.30
2022-11-05T23:42:10.733Z,5.55
2022-11-05T23:44:37.506Z,6.60
2022-11-05T23:47:04.464Z,6.43
2022-11-05T23:49:31.436Z,5.80
2022-11-05T23:51:58.458Z,5.00
2022-11-05T23:54:25.241Z,6.28
2022-11-05T23:56:52.047Z,4.57
2022-11-05T23:59:18.820Z,5.90
